Time;durP1;ratioP1;P1;durP2;ratioP2;P2;SDS_P1;SDS_P2;PMS_P1;PMS_P2;Temp;Humidity;BMP_temperature;BMP_pressure;BME280_temperature;BME280_humidity;BME280_pressure;Samples;Min_cycle;Max_cycle;Signal;HPM_P1;HPM_P2
2022/01/08 00:00:26;;;;;;;15.83;10.17;;;2.10;99.90;;;;;;5027093;28;20133;-73
2022/01/08 00:02:52;;;;;;;13.00;9.97;;;2.10;99.90;;;;;;5010236;28;20092;-73
2022/01/08 00:05:19;;;;;;;12.80;9.57;;;2.10;99.90;;;;;;5041918;28;20073;-73
2022/01/08 00:07:45;;;;;;;13.00;9.63;;;2.10;99.90;;;;;;5043050;28;20450;-74
2022/01/08 00:10:11;;;;;;;14.27;10.90;;;2.10;99.90;;;;;;5026149;28;20132;-74
2022/01/08 00:12:38;;;;;;;16.03;10.70;;;2.10;99.90;;;;;;5026744;28;20137;-74
2022/01/08 00:15:06;;;;;;;14.37;10.67;;;2.10;99.90;;;;;;5025199;28;20559;-74
2022/01/08 00:17:32;;;;;;;16.57;11.60;;;2.10;99.90;;;;;;5028843;28;20080;-74
2022/01/08 00:20:01;;;;;;;14.60;11.63;;;2.00;99.90;;;;;;5026296;28;20049;-74
2022/01/08 00:22:27;;;;;;;16.70;10.83;;;2.00;99.90;;;;;;5014468;28;20046;-74
2022/01/08 00:24:52;;;;;;;15.13;11.67;;;2.10;99.90;;;;;;5015590;28;20051;-75
2022/01/08 00:27:20;;;;;;;18.93;12.20;;;2.00;99.90;;;;;;5021701;28;20888;-74
2022/01/08 00:29:46;;;;;;;17.70;12.20;;;2.10;99.90;;;;;;5027223;28;20053;-75
2022/01/08 00:32:14;;;;;;;15.03;11.90;;;2.10;99.90;;;;;;5028671;28;20060;-75
2022/01/08 00:34:41;;;;;;;16.93;11.50;;;2.10;99.90;;;;;;5009952;28;20057;-73
2022/01/08 00:37:07;;;;;;;17.77;12.20;;;2.10;99.90;;;;;;5028826;28;20049;-75
2022/01/08 00:39:33;;;;;;;18.10;12.53;;;2.20;99.90;;;;;;5010020;28;20547;-74
2022/01/08 00:41:59;;;;;;;15.50;11.63;;;2.30;99.90;;;;;;5028051;28;20041;-74
2022/01/08 00:44:25;;;;;;;16.93;11.70;;;2.20;99.90;;;;;;5024496;28;20060;-75
2022/01/08 00:46:51;;;;;;;18.63;12.73;;;2.10;99.90;;;;;;5013866;28;20053;-74
2022/01/08 00:49:17;;;;;;;15.37;12.00;;;2.10;99.90;;;;;;5011977;28;20533;-74
2022/01/08 00:51:43;;;;;;;19.83;13.57;;;2.10;99.90;;;;;;5020176;28;20057;-74
2022/01/08 00:54:09;;;;;;;15.73;11.83;;;2.20;99.90;;;;;;4989706;28;20041;-73
2022/01/08 00:56:35;;;;;;;19.17;13.47;;;2.10;99.90;;;;;;5030087;28;20050;-73
2022/01/08 00:59:03;;;;;;;17.27;12.73;;;2.10;99.90;;;;;;5018005;28;20136;-73
2022/01/08 01:01:29;;;;;;;19.93;13.20;;;2.10;99.90;;;;;;5045924;28;20068;-73
2022/01/08 01:03:55;;;;;;;19.87;12.53;;;2.10;99.90;;;;;;5045801;28;20057;-73
2022/01/08 01:06:21;;;;;;;19.47;13.60;;;2.10;99.90;;;;;;5045278;28;20041;-74
2022/01/08 01:08:47;;;;;;;17.70;12.57;;;2.10;99.90;;;;;;5036046;28;20507;-73
2022/01/08 01:11:12;;;;;;;22.30;14.70;;;2.10;99.90;;;;;;5011985;28;20041;-73
2022/01/08 01:13:38;;;;;;;18.90;12.80;;;2.10;99.90;;;;;;5028266;28;20056;-73
2022/01/08 01:16:04;;;;;;;20.17;14.57;;;2.10;99.90;;;;;;5045326;28;20408;-73
2022/01/08 01:18:30;;;;;;;21.53;14.23;;;2.00;99.90;;;;;;4991957;28;20046;-74
2022/01/08 01:20:57;;;;;;;20.03;14.47;;;1.90;99.90;;;;;;5026754;28;20051;-73
2022/01/08 01:23:30;;;;;;;24.20;16.30;;;2.00;99.90;;;;;;5038408;28;20061;-73
2022/01/08 01:26:01;;;;;;;25.13;16.83;;;1.90;99.90;;;;;;5030148;28;20673;-73
2022/01/08 01:29:22;;;;;;;21.77;14.18;;;1.90;99.90;;;;;;5029755;28;20059;-74
2022/01/08 01:47:16;;;;;;;25.53;19.77;;;1.60;99.90;;;;;;5044218;28;20084;-73
2022/01/08 01:49:45;;;;;;;35.53;25.67;;;1.60;99.90;;;;;;5023963;28;20054;-73
2022/01/08 01:52:14;;;;;;;28.97;24.17;;;1.60;99.90;;;;;;5024506;28;20516;-73
2022/01/08 01:54:40;;;;;;;31.37;26.03;;;1.60;99.90;;;;;;5025359;28;20415;-73
2022/01/08 01:57:08;;;;;;;33.63;25.73;;;1.70;99.90;;;;;;5034639;28;20052;-73
2022/01/08 01:59:36;;;;;;;35.60;28.03;;;1.60;99.90;;;;;;5028740;28;20106;-73
2022/01/08 02:02:03;;;;;;;31.73;26.43;;;1.60;99.90;;;;;;5028984;28;20060;-73
2022/01/08 02:04:29;;;;;;;31.90;26.77;;;1.70;99.90;;;;;;5042450;28;20522;-73
2022/01/08 02:06:55;;;;;;;35.97;29.90;;;1.70;99.90;;;;;;5028938;28;20048;-74
2022/01/08 02:09:21;;;;;;;30.80;27.47;;;1.70;99.90;;;;;;5027580;28;20568;-73
2022/01/08 02:12:04;;;;;;;35.40;28.17;;;1.70;99.90;;;;;;5045428;28;20059;-74
2022/01/08 02:14:33;;;;;;;35.83;28.00;;;1.70;99.90;;;;;;5045036;28;20110;-73
2022/01/08 02:16:59;;;;;;;35.43;29.30;;;1.80;99.90;;;;;;5021182;28;20053;-74
2022/01/08 02:19:26;;;;;;;31.73;25.90;;;1.80;99.90;;;;;;5038630;28;20033;-73
2022/01/08 02:21:53;;;;;;;31.60;25.00;;;1.80;99.90;;;;;;5047643;28;20128;-74
2022/01/08 02:24:19;;;;;;;29.17;25.93;;;1.90;99.90;;;;;;5039124;28;20048;-73
2022/01/08 02:26:45;;;;;;;30.83;21.90;;;1.90;99.90;;;;;;5031536;28;20515;-73
2022/01/08 02:29:17;;;;;;;33.50;24.67;;;2.00;99.90;;;;;;5029760;28;20053;-73
2022/01/08 02:32:04;;;;;;;31.30;25.57;;;2.00;99.90;;;;;;5040617;28;20088;-74
2022/01/08 02:34:30;;;;;;;33.93;25.57;;;2.00;99.90;;;;;;5047014;28;20061;-73
2022/01/08 02:36:58;;;;;;;31.30;24.63;;;2.00;99.90;;;;;;5048609;28;20045;-74
2022/01/08 02:39:25;;;;;;;35.70;26.63;;;2.00;99.90;;;;;;5014068;28;20049;-74
2022/01/08 02:41:57;;;;;;;33.10;25.10;;;1.90;99.90;;;;;;5013754;28;20068;-73
2022/01/08 02:44:24;;;;;;;34.33;25.10;;;1.90;99.90;;;;;;5032251;28;20088;-73
2022/01/08 02:46:51;;;;;;;38.47;26.00;;;1.80;99.90;;;;;;5047785;28;20559;-73
2022/01/08 02:49:17;;;;;;;33.33;25.03;;;1.70;99.90;;;;;;5028761;28;20056;-73
2022/01/08 02:51:43;;;;;;;32.40;23.93;;;1.60;99.90;;;;;;5047468;28;20068;-74
2022/01/08 02:54:11;;;;;;;33.47;24.37;;;1.60;99.90;;;;;;5040268;28;20048;-73
2022/01/08 02:56:41;;;;;;;34.83;24.20;;;1.50;99.90;;;;;;5047400;28;20080;-73
2022/01/08 02:59:07;;;;;;;25.20;21.43;;;1.50;99.90;;;;;;5045966;28;20495;-72
2022/01/08 03:01:34;;;;;;;31.37;22.60;;;1.50;99.90;;;;;;5044434;28;20045;-72
2022/01/08 03:04:00;;;;;;;31.73;22.93;;;1.50;99.90;;;;;;5046842;28;20132;-72
2022/01/08 03:06:26;;;;;;;31.17;24.23;;;1.50;99.90;;;;;;5046140;28;20060;-73
2022/01/08 03:08:52;;;;;;;35.63;24.03;;;1.50;99.90;;;;;;5032290;28;20056;-72
2022/01/08 03:11:18;;;;;;;30.33;21.40;;;1.50;99.90;;;;;;5026927;28;20053;-72
2022/01/08 03:13:44;;;;;;;29.60;22.20;;;1.40;99.90;;;;;;5009832;28;20634;-73
2022/01/08 03:16:10;;;;;;;29.50;23.40;;;1.40;99.90;;;;;;5009084;28;20504;-73
2022/01/08 03:18:37;;;;;;;32.63;24.13;;;1.50;99.90;;;;;;5044820;28;20106;-72
2022/01/08 03:21:13;;;;;;;29.73;21.83;;;1.40;99.90;;;;;;5046071;28;20048;-73
2022/01/08 03:23:47;;;;;;;30.90;24.17;;;1.40;99.90;;;;;;5025660;28;20120;-73
2022/01/08 03:26:18;;;;;;;28.53;22.07;;;1.40;99.90;;;;;;5042130;28;20057;-73
2022/01/08 03:28:45;;;;;;;35.10;24.40;;;1.40;99.90;;;;;;5046026;28;20072;-73
2022/01/08 03:31:12;;;;;;;30.47;22.20;;;1.30;99.90;;;;;;5045420;28;20102;-73
2022/01/08 03:33:38;;;;;;;34.00;23.13;;;1.30;99.90;;;;;;5045577;28;20048;-73
2022/01/08 03:36:05;;;;;;;27.20;20.90;;;1.20;99.90;;;;;;5028844;28;20496;-72
2022/01/08 03:38:32;;;;;;;30.20;21.37;;;1.30;99.90;;;;;;5044660;28;20048;-73
2022/01/08 03:40:57;;;;;;;27.73;19.67;;;1.40;99.90;;;;;;5036001;28;20744;-73
2022/01/08 03:43:24;;;;;;;27.87;18.87;;;1.40;99.90;;;;;;5025323;28;20041;-74
2022/01/08 03:45:53;;;;;;;25.73;17.30;;;1.40;99.90;;;;;;5009402;28;20054;-72
2022/01/08 03:51:05;;;;;;;22.03;16.30;;;1.40;99.90;;;;;;5013087;28;20098;-73
2022/01/08 03:53:31;;;;;;;22.83;17.17;;;1.50;99.90;;;;;;5036013;28;20049;-73
2022/01/08 03:55:57;;;;;;;23.80;16.70;;;1.50;99.90;;;;;;5027144;28;20053;-72
2022/01/08 03:58:23;;;;;;;23.20;15.53;;;1.50;99.90;;;;;;5042719;28;20130;-72
2022/01/08 04:00:49;;;;;;;23.03;14.40;;;1.50;99.90;;;;;;5027671;28;20123;-72
2022/01/08 04:03:18;;;;;;;18.97;13.10;;;1.50;99.90;;;;;;5042735;28;20110;-72
2022/01/08 04:05:48;;;;;;;18.90;13.23;;;1.60;99.90;;;;;;5043712;28;20080;-72
2022/01/08 04:08:16;;;;;;;18.42;12.13;;;1.70;99.90;;;;;;5042963;28;20041;-72
2022/01/08 04:10:42;;;;;;;21.23;13.90;;;1.70;99.90;;;;;;5043029;28;20396;-72
2022/01/08 04:13:15;;;;;;;21.97;14.80;;;1.70;99.90;;;;;;5026022;28;20037;-72
2022/01/08 04:15:43;;;;;;;21.63;15.07;;;1.60;99.90;;;;;;5043419;28;20519;-73
2022/01/08 04:18:10;;;;;;;27.00;16.00;;;1.80;99.90;;;;;;5044154;28;20456;-73
2022/01/08 04:20:50;;;;;;;27.07;17.47;;;1.80;99.90;;;;;;5044147;28;20423;-73
2022/01/08 04:23:20;;;;;;;30.02;19.15;;;1.70;99.90;;;;;;5039350;28;20064;-72
2022/01/08 04:25:49;;;;;;;29.97;18.63;;;1.60;99.90;;;;;;5026948;28;20103;-72
2022/01/08 04:28:16;;;;;;;28.37;18.97;;;1.60;99.90;;;;;;5042573;28;20052;-72
2022/01/08 04:30:42;;;;;;;29.13;19.50;;;1.60;99.90;;;;;;5040907;28;20052;-72
2022/01/08 04:33:08;;;;;;;30.30;20.00;;;1.50;99.90;;;;;;5043645;28;20083;-73
2022/01/08 04:35:34;;;;;;;31.73;22.23;;;1.50;99.90;;;;;;5027049;28;20522;-72
2022/01/08 04:38:00;;;;;;;30.23;22.97;;;1.50;99.90;;;;;;5043953;28;20116;-73
2022/01/08 04:40:26;;;;;;;31.33;22.17;;;1.50;99.90;;;;;;5039911;28;20055;-73
2022/01/08 04:42:52;;;;;;;34.87;24.43;;;1.50;99.90;;;;;;5043969;28;20044;-73
2022/01/08 04:45:18;;;;;;;32.50;24.70;;;1.50;99.90;;;;;;5042709;28;20048;-73
2022/01/08 04:47:44;;;;;;;35.87;24.47;;;1.50;99.90;;;;;;5040425;28;20083;-73
2022/01/08 04:50:12;;;;;;;35.57;25.57;;;1.50;99.90;;;;;;5023201;28;20041;-73
2022/01/08 04:52:39;;;;;;;33.23;24.07;;;1.50;99.90;;;;;;5037090;28;20515;-73
2022/01/08 04:55:05;;;;;;;33.87;25.57;;;1.50;99.90;;;;;;5042446;28;20080;-73
2022/01/08 04:57:31;;;;;;;35.23;25.63;;;1.40;99.90;;;;;;5041851;28;20060;-73
2022/01/08 04:59:57;;;;;;;33.53;25.30;;;1.40;99.90;;;;;;5042655;28;20041;-73
2022/01/08 05:02:23;;;;;;;35.63;25.60;;;1.40;99.90;;;;;;5055509;28;20067;-73
2022/01/08 05:04:49;;;;;;;34.20;24.63;;;1.40;99.90;;;;;;5043945;28;20131;-73
2022/01/08 05:07:14;;;;;;;36.43;25.83;;;1.50;99.90;;;;;;5043696;28;20052;-73
2022/01/08 05:09:40;;;;;;;36.97;26.17;;;1.40;99.90;;;;;;5044073;28;20060;-73
2022/01/08 05:12:07;;;;;;;41.73;28.00;;;1.30;99.90;;;;;;5060896;28;20136;-74
2022/01/08 05:14:32;;;;;;;45.20;26.63;;;1.30;99.90;;;;;;5043086;28;20060;-73
2022/01/08 05:17:01;;;;;;;40.07;27.17;;;1.30;99.90;;;;;;5044708;28;20053;-73
2022/01/08 05:19:47;;;;;;;38.23;26.43;;;1.30;99.90;;;;;;5044912;28;20124;-73
2022/01/08 05:22:29;;;;;;;42.73;26.97;;;1.20;99.90;;;;;;5043087;28;20102;-73
2022/01/08 05:24:56;;;;;;;40.13;26.37;;;1.20;99.90;;;;;;5031167;28;20045;-73
2022/01/08 05:27:23;;;;;;;31.13;22.50;;;1.20;99.90;;;;;;5043599;28;20521;-73
2022/01/08 05:29:51;;;;;;;40.83;25.90;;;1.20;99.90;;;;;;5043846;28;20089;-74
2022/01/08 05:32:18;;;;;;;26.63;22.00;;;1.10;99.90;;;;;;5026691;28;20041;-71
2022/01/08 05:34:46;;;;;;;37.67;26.00;;;1.10;99.90;;;;;;5043606;28;20049;-73
2022/01/08 05:37:12;;;;;;;44.10;27.70;;;1.00;99.90;;;;;;5043377;28;20050;-73
2022/01/08 05:39:39;;;;;;;31.57;22.53;;;1.10;99.90;;;;;;5043637;28;20132;-73
2022/01/08 05:42:05;;;;;;;33.13;23.87;;;1.00;99.90;;;;;;5026726;28;20113;-72
2022/01/08 05:44:31;;;;;;;35.10;23.73;;;1.00;99.90;;;;;;5023515;28;20699;-73
2022/01/08 05:47:01;;;;;;;34.37;22.27;;;1.00;99.90;;;;;;5008051;28;20869;-73
2022/01/08 05:49:27;;;;;;;31.87;23.17;;;1.00;99.90;;;;;;5023118;28;20059;-73
2022/01/08 05:51:52;;;;;;;34.23;21.17;;;1.00;99.90;;;;;;5047463;28;20052;-73
2022/01/08 05:54:18;;;;;;;32.37;21.03;;;1.00;99.90;;;;;;5029017;28;20130;-73
2022/01/08 05:56:44;;;;;;;31.07;20.40;;;1.00;99.90;;;;;;5047817;28;20048;-73
2022/01/08 05:59:10;;;;;;;33.47;21.50;;;0.90;99.90;;;;;;5049097;28;20049;-73
2022/01/08 06:01:36;;;;;;;27.70;18.60;;;0.90;99.90;;;;;;4999955;28;20045;-73
2022/01/08 06:04:03;;;;;;;30.77;20.37;;;0.90;99.90;;;;;;5047643;28;20045;-74
2022/01/08 06:06:29;;;;;;;33.73;19.10;;;0.90;99.90;;;;;;5046629;28;20056;-73
2022/01/08 06:08:55;;;;;;;32.47;19.50;;;0.90;99.90;;;;;;5048719;28;20702;-73
2022/01/08 06:11:21;;;;;;;29.07;18.57;;;0.90;99.90;;;;;;5047944;28;20365;-73
2022/01/08 06:13:47;;;;;;;30.90;19.23;;;0.90;99.90;;;;;;5047221;28;20503;-73
2022/01/08 06:16:13;;;;;;;30.97;19.00;;;1.00;99.90;;;;;;5030006;28;20041;-73
2022/01/08 06:18:39;;;;;;;27.83;18.57;;;1.00;99.90;;;;;;5030519;28;20049;-73
2022/01/08 06:21:05;;;;;;;32.33;17.90;;;0.90;99.90;;;;;;5030661;28;20045;-72
2022/01/08 06:23:31;;;;;;;23.37;16.67;;;0.90;99.90;;;;;;5035237;28;20056;-73
2022/01/08 06:25:58;;;;;;;28.70;17.90;;;0.90;99.90;;;;;;5044062;28;20048;-73
2022/01/08 06:28:26;;;;;;;24.67;15.37;;;0.90;99.90;;;;;;5047774;28;20081;-73
2022/01/08 06:30:53;;;;;;;25.60;15.57;;;0.90;99.90;;;;;;5047905;28;20143;-73
2022/01/08 06:33:20;;;;;;;24.27;15.10;;;0.90;99.90;;;;;;5047113;28;20138;-73
2022/01/08 06:35:46;;;;;;;24.30;15.60;;;0.90;99.90;;;;;;5015209;28;20147;-73
2022/01/08 06:38:12;;;;;;;25.17;15.23;;;0.90;99.90;;;;;;5048283;28;20133;-73
2022/01/08 06:40:38;;;;;;;22.27;15.17;;;0.90;99.90;;;;;;5025466;28;20515;-73
2022/01/08 06:43:04;;;;;;;22.63;15.90;;;0.90;99.90;;;;;;5026747;28;20053;-73
2022/01/08 06:45:29;;;;;;;30.27;17.20;;;0.90;99.90;;;;;;5026010;28;20054;-73
2022/01/08 06:47:55;;;;;;;21.33;14.43;;;0.90;99.90;;;;;;5041874;28;20042;-73
2022/01/08 06:50:21;;;;;;;23.33;14.00;;;0.90;99.90;;;;;;4993398;28;20057;-74
2022/01/08 06:52:47;;;;;;;26.23;14.60;;;0.90;99.90;;;;;;5012568;28;20587;-73
2022/01/08 06:55:13;;;;;;;25.13;15.40;;;0.90;99.90;;;;;;5029223;28;20045;-73
2022/01/08 06:57:39;;;;;;;22.57;15.67;;;0.80;99.90;;;;;;5013749;28;20120;-73
2022/01/08 07:00:05;;;;;;;27.87;16.07;;;0.80;99.90;;;;;;5029304;28;20056;-73
2022/01/08 07:02:32;;;;;;;25.83;16.63;;;0.80;99.90;;;;;;5020630;28;20053;-73
2022/01/08 07:04:58;;;;;;;28.00;16.77;;;0.80;99.90;;;;;;5037805;28;20523;-73
2022/01/08 07:07:27;;;;;;;25.23;17.27;;;0.80;99.90;;;;;;5010789;28;20053;-73
2022/01/08 07:09:53;;;;;;;26.83;17.40;;;0.80;99.90;;;;;;5011229;28;20485;-73
2022/01/08 07:12:19;;;;;;;25.67;17.60;;;0.80;99.90;;;;;;4994498;28;20742;-73
2022/01/08 07:14:45;;;;;;;31.13;19.27;;;0.80;99.90;;;;;;5010751;28;20172;-73
2022/01/08 07:17:11;;;;;;;29.03;18.63;;;0.80;99.90;;;;;;5029509;28;20106;-74
2022/01/08 07:19:37;;;;;;;31.37;20.93;;;0.80;99.90;;;;;;5047273;28;20061;-73
2022/01/08 07:22:03;;;;;;;34.27;20.87;;;0.80;99.90;;;;;;5030224;28;20518;-73
2022/01/08 07:24:32;;;;;;;27.70;17.03;;;0.80;99.90;;;;;;5013971;28;20499;-73
2022/01/08 07:26:57;;;;;;;30.47;19.20;;;0.80;99.90;;;;;;5030849;28;20116;-73
2022/01/08 07:29:23;;;;;;;30.47;18.00;;;0.80;99.90;;;;;;5030158;28;20053;-73
2022/01/08 07:31:49;;;;;;;28.73;16.67;;;0.80;99.90;;;;;;5047236;28;20052;-73
2022/01/08 07:34:15;;;;;;;27.30;16.60;;;0.80;99.90;;;;;;5046380;28;20051;-73
2022/01/08 07:36:40;;;;;;;47.77;21.23;;;0.80;99.90;;;;;;5047307;28;20064;-73
2022/01/08 07:39:06;;;;;;;24.50;15.87;;;0.90;99.90;;;;;;5030212;28;20064;-73
2022/01/08 07:41:32;;;;;;;28.07;16.07;;;0.90;99.90;;;;;;5013471;28;20084;-72
2022/01/08 07:43:59;;;;;;;34.10;17.27;;;0.90;99.90;;;;;;5025868;28;20072;-72
2022/01/08 07:46:24;;;;;;;25.27;16.07;;;0.90;99.90;;;;;;5026517;28;20089;-73
2022/01/08 07:48:50;;;;;;;28.93;19.10;;;0.90;99.90;;;;;;5026548;28;20525;-73
2022/01/08 07:51:16;;;;;;;24.20;15.10;;;1.00;99.90;;;;;;5025461;28;20128;-72
2022/01/08 07:53:42;;;;;;;25.40;15.17;;;1.00;99.90;;;;;;5010035;28;20127;-73
2022/01/08 07:56:08;;;;;;;21.93;14.17;;;1.00;99.90;;;;;;5010136;28;20042;-73
2022/01/08 07:58:35;;;;;;;25.13;14.87;;;1.00;99.90;;;;;;5009650;28;20053;-73
2022/01/08 08:01:01;;;;;;;24.83;16.13;;;1.00;99.90;;;;;;5026051;28;20057;-73
2022/01/08 08:03:27;;;;;;;22.40;16.33;;;0.90;99.90;;;;;;5008828;28;20803;-73
2022/01/08 08:05:52;;;;;;;22.60;14.37;;;1.00;99.90;;;;;;5047010;28;20057;-73
2022/01/08 08:08:19;;;;;;;23.00;14.63;;;1.00;99.90;;;;;;5029608;28;20064;-73
2022/01/08 08:10:53;;;;;;;30.93;14.80;;;0.90;99.90;;;;;;5030329;28;20060;-74
2022/01/08 08:13:21;;;;;;;22.80;13.53;;;1.00;99.90;;;;;;5046090;28;20436;-73
2022/01/08 08:15:48;;;;;;;19.97;15.30;;;1.00;99.90;;;;;;5031109;28;20128;-73
2022/01/08 08:18:14;;;;;;;22.93;15.13;;;1.00;99.90;;;;;;5030469;28;20509;-73
2022/01/08 08:20:41;;;;;;;18.43;12.63;;;1.00;99.90;;;;;;5047709;28;20076;-72
2022/01/08 08:23:07;;;;;;;20.43;12.87;;;1.00;99.90;;;;;;5037152;28;20072;-73
2022/01/08 08:25:33;;;;;;;19.10;11.70;;;0.90;99.90;;;;;;5028639;28;20100;-72
2022/01/08 08:27:59;;;;;;;19.17;12.33;;;1.00;99.90;;;;;;5045795;28;20508;-73
2022/01/08 08:30:25;;;;;;;19.13;11.80;;;1.10;99.90;;;;;;5045837;28;20049;-73
2022/01/08 08:32:51;;;;;;;17.17;11.80;;;1.10;99.90;;;;;;5045783;28;20056;-73
2022/01/08 08:35:17;;;;;;;15.20;10.90;;;1.10;99.90;;;;;;5044940;28;20059;-73
2022/01/08 08:37:43;;;;;;;19.30;11.87;;;1.20;99.90;;;;;;5030767;28;20067;-73
2022/01/08 08:40:11;;;;;;;17.80;12.03;;;1.20;99.90;;;;;;5036261;28;20128;-73
2022/01/08 08:42:37;;;;;;;18.63;10.80;;;1.20;99.90;;;;;;5045779;28;20049;-73
2022/01/08 08:45:05;;;;;;;16.83;10.27;;;1.20;99.90;;;;;;5028403;28;20112;-74
2022/01/08 08:47:32;;;;;;;19.57;10.47;;;1.20;99.90;;;;;;5043879;28;20052;-73
2022/01/08 08:49:59;;;;;;;17.93;10.37;;;1.30;99.90;;;;;;5027716;28;20432;-74
2022/01/08 08:52:25;;;;;;;14.67;9.13;;;1.30;99.90;;;;;;5025165;28;20130;-73
2022/01/08 08:54:51;;;;;;;18.33;10.60;;;1.40;99.90;;;;;;4993398;28;20517;-73
2022/01/08 08:57:17;;;;;;;18.37;10.73;;;1.50;99.90;;;;;;5025785;28;20049;-73
2022/01/08 08:59:43;;;;;;;17.73;8.87;;;1.50;99.90;;;;;;4993508;28;20052;-73
2022/01/08 09:02:09;;;;;;;15.07;9.10;;;1.60;99.90;;;;;;5031500;28;20036;-73
2022/01/08 09:04:36;;;;;;;16.63;8.67;;;1.60;99.90;;;;;;5045495;28;20508;-72
2022/01/08 09:07:04;;;;;;;18.43;9.17;;;1.70;99.90;;;;;;5028972;28;20048;-72
2022/01/08 09:09:30;;;;;;;18.57;8.23;;;1.80;99.90;;;;;;5028387;28;20399;-73
2022/01/08 09:11:55;;;;;;;14.60;8.50;;;1.80;99.90;;;;;;5008459;28;20057;-73
2022/01/08 09:14:21;;;;;;;16.73;8.57;;;1.90;99.90;;;;;;5024577;28;20129;-73
2022/01/08 09:16:56;;;;;;;14.83;8.47;;;1.90;99.90;;;;;;5013229;28;20107;-73
2022/01/08 09:19:22;;;;;;;14.57;8.00;;;2.00;99.90;;;;;;5044819;28;20053;-73
2022/01/08 09:21:49;;;;;;;16.43;8.70;;;2.10;99.90;;;;;;5024963;28;20060;-73
2022/01/08 09:24:18;;;;;;;15.03;8.50;;;2.10;99.90;;;;;;5028234;28;20057;-73
2022/01/08 09:26:45;;;;;;;18.77;8.50;;;2.10;99.90;;;;;;5016942;28;20044;-73
2022/01/08 09:29:11;;;;;;;19.40;8.93;;;2.10;99.90;;;;;;5032759;28;20048;-72
2022/01/08 09:31:38;;;;;;;15.17;8.40;;;2.10;99.90;;;;;;5032520;28;20059;-73
2022/01/08 09:34:05;;;;;;;16.67;8.70;;;2.20;99.90;;;;;;5048741;28;20416;-73
2022/01/08 09:36:31;;;;;;;13.40;8.80;;;2.20;99.90;;;;;;5048904;28;20177;-73
2022/01/08 09:38:57;;;;;;;18.93;8.67;;;2.20;99.90;;;;;;5016617;28;20041;-73
2022/01/08 09:41:23;;;;;;;15.70;9.50;;;2.20;99.90;;;;;;5031704;28;20057;-73
2022/01/08 09:43:49;;;;;;;21.13;9.50;;;2.20;99.90;;;;;;5046094;28;20128;-73
2022/01/08 09:46:16;;;;;;;20.10;9.57;;;2.20;99.90;;;;;;5028957;28;20057;-73
2022/01/08 09:48:45;;;;;;;17.67;9.37;;;2.20;99.90;;;;;;5028775;28;20042;-73
2022/01/08 09:51:11;;;;;;;14.77;9.33;;;2.20;99.90;;;;;;5029148;28;20059;-73
2022/01/08 09:53:37;;;;;;;17.80;10.03;;;2.40;99.90;;;;;;5011185;28;20493;-73
2022/01/08 09:56:04;;;;;;;16.50;10.00;;;2.30;99.90;;;;;;5029306;28;20049;-73
2022/01/08 09:58:30;;;;;;;15.60;9.90;;;2.30;99.90;;;;;;5011788;28;20515;-73
2022/01/08 10:00:56;;;;;;;15.17;10.33;;;2.40;99.90;;;;;;4996169;28;20131;-73
2022/01/08 10:03:27;;;;;;;16.33;10.23;;;2.40;99.90;;;;;;5014774;28;20120;-73
2022/01/08 10:05:55;;;;;;;16.80;9.95;;;2.40;99.90;;;;;;5050326;28;20044;-73
2022/01/08 10:08:27;;;;;;;17.37;10.33;;;2.40;99.90;;;;;;5044161;28;20053;-73
2022/01/08 10:10:55;;;;;;;17.60;11.13;;;2.50;99.90;;;;;;5013961;28;20064;-73
2022/01/08 10:13:23;;;;;;;18.47;10.60;;;2.50;99.90;;;;;;5035402;28;20049;-72
2022/01/08 10:18:37;;;;;;;15.27;11.33;;;2.70;99.90;;;;;;5046727;28;20044;-73
2022/01/08 10:21:22;;;;;;;17.80;11.27;;;2.70;99.90;;;;;;5049119;28;20495;-73
2022/01/08 10:24:00;;;;;;;20.03;11.53;;;2.80;99.90;;;;;;5038379;28;20338;-73
2022/01/08 10:26:32;;;;;;;17.20;12.43;;;2.90;99.90;;;;;;5022090;28;20540;-73
2022/01/08 10:29:03;;;;;;;19.03;12.40;;;2.90;99.90;;;;;;5043512;28;20045;-72
2022/01/08 10:31:38;;;;;;;18.43;12.53;;;3.00;99.90;;;;;;5036422;28;20844;-73
2022/01/08 10:34:14;;;;;;;19.17;12.80;;;3.00;99.90;;;;;;5033704;28;20041;-72
2022/01/08 10:36:49;;;;;;;16.57;11.57;;;3.00;99.90;;;;;;5031194;28;20073;-73
2022/01/08 10:39:33;;;;;;;20.00;14.00;;;3.00;99.90;;;;;;5030901;28;20119;-73
2022/01/08 10:42:02;;;;;;;19.90;13.83;;;3.00;99.90;;;;;;5031428;28;20119;-73
2022/01/08 10:44:32;;;;;;;17.93;12.47;;;3.00;99.90;;;;;;5030538;28;20046;-72
2022/01/08 10:46:59;;;;;;;;;;;3.10;99.90;;;;;;5017452;28;20822;-73
2022/01/08 10:49:34;;;;;;;18.07;13.70;;;3.00;99.90;;;;;;5032813;28;19928;-73
2022/01/08 10:52:11;;;;;;;18.07;14.47;;;3.10;99.90;;;;;;5034258;28;20053;-73
2022/01/08 10:54:38;;;;;;;18.37;14.50;;;3.10;99.90;;;;;;5037399;28;20463;-73
2022/01/08 10:57:07;;;;;;;18.93;14.03;;;3.00;99.90;;;;;;5038079;28;20467;-73
2022/01/08 10:59:34;;;;;;;20.17;14.10;;;3.10;99.90;;;;;;5042125;28;20507;-73
2022/01/08 11:02:08;;;;;;;21.93;13.97;;;3.20;99.90;;;;;;5036607;28;20056;-72
2022/01/08 11:04:49;;;;;;;17.17;13.17;;;3.20;99.90;;;;;;5045726;28;20041;-73
2022/01/08 11:07:26;;;;;;;20.23;14.57;;;3.20;99.90;;;;;;5044153;28;20083;-73
2022/01/08 11:09:53;;;;;;;17.80;13.17;;;3.20;99.90;;;;;;5024730;28;20055;-73
2022/01/08 11:12:24;;;;;;;19.70;14.33;;;3.30;99.90;;;;;;5029827;28;20052;-74
2022/01/08 11:17:28;;;;;;;15.10;12.63;;;3.30;99.90;;;;;;5020151;28;20046;-75
2022/01/08 11:20:04;;;;;;;20.90;13.73;;;3.30;99.90;;;;;;5025989;28;20140;-74
2022/01/08 11:22:32;;;;;;;21.70;13.60;;;3.40;99.90;;;;;;5029909;28;20049;-74
2022/01/08 11:25:16;;;;;;;17.07;13.90;;;3.40;99.90;;;;;;5032662;28;20131;-74
2022/01/08 11:28:01;;;;;;;18.93;13.50;;;3.40;99.90;;;;;;5030536;28;20057;-73
2022/01/08 11:30:33;;;;;;;17.90;13.27;;;3.50;99.90;;;;;;5049363;28;20072;-73
2022/01/08 11:33:06;;;;;;;16.20;13.73;;;3.50;99.90;;;;;;5013289;28;20045;-74
2022/01/08 11:35:35;;;;;;;26.57;14.47;;;3.50;99.90;;;;;;5029300;28;20056;-73
2022/01/08 11:38:06;;;;;;;22.50;15.10;;;3.50;99.90;;;;;;5029374;28;20212;-72
2022/01/08 11:40:32;;;;;;;20.07;13.57;;;3.50;99.90;;;;;;5031410;28;20522;-72
2022/01/08 11:43:03;;;;;;;24.90;15.83;;;3.50;99.90;;;;;;5042458;28;20124;-73
2022/01/08 11:45:33;;;;;;;19.77;14.43;;;3.50;99.90;;;;;;5029385;28;20045;-73
2022/01/08 11:48:01;;;;;;;;;;;3.60;99.90;;;;;;5028360;28;20159;-73
2022/01/08 11:50:29;;;;;;;17.27;14.23;;;3.60;99.90;;;;;;5049413;28;19925;-73
2022/01/08 11:53:18;;;;;;;22.83;14.77;;;3.70;99.90;;;;;;5017590;28;20084;-74
2022/01/08 11:56:06;;;;;;;24.30;15.30;;;3.70;99.90;;;;;;5036075;28;20510;-73
2022/01/08 11:58:33;;;;;;;21.90;16.27;;;3.70;99.90;;;;;;5041515;28;20072;-74
2022/01/08 12:01:12;;;;;;;22.07;16.27;;;3.80;99.90;;;;;;5021149;28;20057;-75
2022/01/08 12:03:48;;;;;;;22.70;17.37;;;3.80;99.90;;;;;;5042883;28;20072;-73
2022/01/08 12:11:46;;;;;;;24.47;20.27;;;3.90;99.90;;;;;;5135311;27;20057;-73
2022/01/08 12:14:19;;;;;;;28.53;20.97;;;3.80;99.90;;;;;;5127959;27;20043;-73
2022/01/08 12:16:47;;;;;;;23.13;20.87;;;3.80;99.90;;;;;;5117573;27;20187;-73
2022/01/08 12:19:40;;;;;;;25.47;22.93;;;3.90;99.90;;;;;;5123970;27;20096;-71
2022/01/08 12:22:24;;;;;;;28.10;23.57;;;3.90;99.90;;;;;;5148735;27;20556;-73
2022/01/08 12:24:52;;;;;;;25.47;22.63;;;3.90;99.90;;;;;;5122671;27;20057;-73
2022/01/08 12:27:39;;;;;;;26.03;23.23;;;4.00;99.90;;;;;;5131511;27;20054;-73
2022/01/08 12:30:17;;;;;;;27.40;24.53;;;3.80;99.90;;;;;;5124241;27;20121;-72
2022/01/08 12:32:47;;;;;;;28.47;25.37;;;3.90;99.90;;;;;;5130340;27;20047;-73
2022/01/08 12:35:20;;;;;;;29.90;26.88;;;3.90;99.90;;;;;;5126068;27;20046;-74
2022/01/08 12:37:54;;;;;;;31.53;27.83;;;3.90;99.90;;;;;;5125654;27;20054;-74
2022/01/08 12:40:38;;;;;;;31.90;28.50;;;3.80;99.90;;;;;;5118385;27;20829;-74
2022/01/08 12:43:31;;;;;;;35.57;31.93;;;3.80;99.90;;;;;;5112890;27;20043;-72
2022/01/08 12:46:17;;;;;;;34.47;30.97;;;3.80;99.90;;;;;;5115745;27;20078;-72
2022/01/08 12:49:09;;;;;;;33.20;29.70;;;3.80;99.90;;;;;;5112150;27;20043;-72
2022/01/08 12:51:48;;;;;;;33.83;30.17;;;3.80;99.90;;;;;;5134973;27;20041;-74
2022/01/08 12:54:16;;;;;;;34.40;30.80;;;3.80;99.90;;;;;;5145349;27;20039;-74
2022/01/08 12:56:53;;;;;;;34.53;31.33;;;3.80;99.90;;;;;;5123276;27;20076;-74
2022/01/08 12:59:20;;;;;;;33.63;30.33;;;3.80;99.90;;;;;;5135511;27;20562;-75
2022/01/08 13:01:50;;;;;;;38.80;34.90;;;3.80;99.90;;;;;;5108952;27;20096;-74
2022/01/08 13:04:20;;;;;;;37.53;33.80;;;3.80;99.90;;;;;;5140232;27;20115;-75
2022/01/08 13:06:47;;;;;;;34.33;30.77;;;3.70;99.90;;;;;;5125715;27;20075;-75
2022/01/08 13:09:13;;;;;;;37.47;31.67;;;3.80;99.90;;;;;;5126251;27;20035;-75
2022/01/08 13:11:44;;;;;;;33.20;29.67;;;3.80;99.90;;;;;;5126012;27;20043;-74
2022/01/08 13:14:16;;;;;;;33.80;30.27;;;3.70;99.90;;;;;;5112790;27;20039;-75